Terminal Aerodrome Forecast
Issued by NWS

Home | Current Version | Previous Version | Graphics & Text | Print | Product List | Glossary Off
Versions: 1 2 3 4 5 6 7 8 9 10 11 12 13

000
FTUS43 KGRB 181700
TAFAUW
TAF
KAUW 181720Z 1818/1918 09014G19KT P6SM SCT200
     FM190100 10008KT P6SM BKN150
     FM190700 11008KT P6SM BKN060 BKN150 WS015/12040KT
     FM191300 12012G17KT P6SM BKN060 OVC100
      TEMPO 1913/1917 -SHRA OVC060=

USA.gov is the U.S. government's official web portal to all federal, state and local government web resources and services.